Time;durP1;ratioP1;P1;durP2;ratioP2;P2;SDS_P1;SDS_P2;PMS_P1;PMS_P2;Temp;Humidity;BMP_temperature;BMP_pressure;BME280_temperature;BME280_humidity;BME280_pressure;Samples;Min_cycle;Max_cycle;Signal;HPM_P1;HPM_P2
2021/05/27 00:02:09;;;;;;;0.73;0.73;;;10.10;1.00;;;;;;4960323;29;20024;-78
2021/05/27 00:04:35;;;;;;;0.82;0.70;;;10.00;1.00;;;;;;4960037;29;20031;-77
2021/05/27 00:07:00;;;;;;;1.98;0.85;;;10.00;1.00;;;;;;4973445;28;20114;-78
2021/05/27 00:09:26;;;;;;;0.70;0.68;;;10.00;1.00;;;;;;4992009;28;20023;-78
2021/05/27 00:11:53;;;;;;;1.10;0.93;;;10.00;1.00;;;;;;4983770;28;20027;-78
2021/05/27 00:14:18;;;;;;;1.40;1.00;;;10.00;1.00;;;;;;4980805;28;20023;-77
2021/05/27 00:16:44;;;;;;;1.10;1.08;;;10.00;1.00;;;;;;4977573;28;20030;-78
2021/05/27 00:19:10;;;;;;;1.20;0.98;;;9.90;1.00;;;;;;4976374;28;20125;-78
2021/05/27 00:21:35;;;;;;;2.35;0.85;;;9.90;1.00;;;;;;4979878;28;20046;-76
2021/05/27 00:24:01;;;;;;;1.30;0.80;;;9.90;1.00;;;;;;4978489;28;20027;-77
2021/05/27 00:26:26;;;;;;;0.90;0.85;;;10.00;1.00;;;;;;4980337;28;20090;-77
2021/05/27 00:28:52;;;;;;;1.00;0.70;;;10.00;1.00;;;;;;4980782;28;20536;-77
2021/05/27 00:31:17;;;;;;;3.13;1.00;;;10.00;1.00;;;;;;4985424;28;20039;-77
2021/05/27 00:33:43;;;;;;;2.47;1.08;;;10.00;1.00;;;;;;4981352;28;20513;-79
2021/05/27 00:36:09;;;;;;;1.20;0.70;;;9.90;1.00;;;;;;4977196;28;20018;-78
2021/05/27 00:38:37;;;;;;;0.75;0.73;;;10.00;1.00;;;;;;4977469;28;20490;-77
2021/05/27 00:41:03;;;;;;;1.60;0.90;;;10.00;1.00;;;;;;4975999;28;20075;-77
2021/05/27 00:43:29;;;;;;;0.95;0.77;;;10.00;1.00;;;;;;4980161;28;20484;-78
2021/05/27 00:45:54;;;;;;;4.25;0.85;;;10.00;1.00;;;;;;4976697;28;20054;-77
2021/05/27 00:51:04;;;;;;;1.67;0.98;;;10.00;1.00;;;;;;4974929;28;20089;-77
2021/05/27 00:53:31;;;;;;;0.63;0.63;;;10.00;1.00;;;;;;4977864;28;20007;-78
2021/05/27 00:55:56;;;;;;;0.98;0.80;;;10.00;1.00;;;;;;4975937;28;20037;-78
2021/05/27 00:58:23;;;;;;;1.77;0.90;;;10.00;1.00;;;;;;4992129;28;20144;-77
2021/05/27 01:00:50;;;;;;;0.73;0.70;;;9.90;1.00;;;;;;4976239;28;20034;-76
2021/05/27 01:03:16;;;;;;;1.45;0.90;;;9.90;1.00;;;;;;4976402;28;20127;-76
2021/05/27 01:05:45;;;;;;;1.00;0.80;;;9.90;1.00;;;;;;4973296;28;20066;-76
2021/05/27 01:08:10;;;;;;;2.17;1.55;;;9.90;1.00;;;;;;4972260;28;20026;-78
2021/05/27 01:10:37;;;;;;;1.95;1.10;;;9.90;1.00;;;;;;4955695;28;20035;-77
2021/05/27 01:13:03;;;;;;;1.60;1.50;;;9.90;1.00;;;;;;4956890;29;20079;-77
2021/05/27 01:15:30;;;;;;;3.78;1.10;;;9.90;1.00;;;;;;4955560;29;20031;-78
2021/05/27 01:18:02;;;;;;;1.45;0.82;;;9.90;1.00;;;;;;4955399;29;20031;-76
2021/05/27 01:20:30;;;;;;;1.38;0.77;;;9.90;1.00;;;;;;4955181;28;20179;-78
2021/05/27 01:22:56;;;;;;;0.85;0.85;;;9.90;1.00;;;;;;4954658;29;20035;-76
2021/05/27 01:25:22;;;;;;;1.10;1.00;;;9.90;1.00;;;;;;4955872;29;20420;-77
2021/05/27 01:27:47;;;;;;;0.85;0.80;;;9.80;1.00;;;;;;4956888;29;20031;-77
2021/05/27 01:30:14;;;;;;;0.80;0.80;;;9.90;1.00;;;;;;4956798;28;20562;-77
2021/05/27 01:32:39;;;;;;;1.45;0.80;;;9.80;1.00;;;;;;4972836;28;20033;-77
2021/05/27 01:35:12;;;;;;;3.50;1.20;;;9.80;1.00;;;;;;4974344;28;20026;-77
2021/05/27 01:37:38;;;;;;;0.80;0.80;;;9.80;1.00;;;;;;4977780;28;20030;-76
2021/05/27 01:40:05;;;;;;;1.23;1.15;;;9.80;1.00;;;;;;4979236;28;20095;-76
2021/05/27 01:42:30;;;;;;;3.28;0.93;;;9.80;1.00;;;;;;4977255;28;20047;-76
2021/05/27 01:44:56;;;;;;;1.52;0.73;;;9.80;1.00;;;;;;4975422;28;20052;-78
2021/05/27 01:47:21;;;;;;;1.38;0.95;;;9.80;1.00;;;;;;4975094;28;20050;-78
2021/05/27 01:49:47;;;;;;;1.48;1.27;;;9.80;1.00;;;;;;4978442;28;20027;-77
2021/05/27 01:52:12;;;;;;;1.67;1.10;;;9.80;1.00;;;;;;4976340;28;20391;-76
2021/05/27 01:54:38;;;;;;;1.95;0.90;;;9.80;1.00;;;;;;4977941;28;20106;-78
2021/05/27 01:57:04;;;;;;;1.17;0.68;;;9.80;1.00;;;;;;4975302;28;20030;-78
2021/05/27 01:59:30;;;;;;;1.65;0.98;;;9.80;1.00;;;;;;4976235;28;20063;-78
2021/05/27 02:01:56;;;;;;;1.13;1.00;;;9.80;1.00;;;;;;4976212;28;20026;-77
2021/05/27 02:04:21;;;;;;;1.08;0.93;;;9.80;1.00;;;;;;4976976;28;20023;-77
2021/05/27 02:06:47;;;;;;;1.60;0.90;;;9.80;1.00;;;;;;4971928;28;20522;-77
2021/05/27 02:09:12;;;;;;;1.42;0.77;;;9.80;1.00;;;;;;4964061;28;20400;-76
2021/05/27 02:11:44;;;;;;;1.17;0.85;;;9.80;1.00;;;;;;4958718;29;20028;-78
2021/05/27 02:14:12;;;;;;;1.95;0.98;;;9.80;1.00;;;;;;4955847;29;20023;-78
2021/05/27 02:16:38;;;;;;;1.42;0.93;;;9.80;1.00;;;;;;4956626;29;20031;-77
2021/05/27 02:19:04;;;;;;;1.48;0.95;;;9.80;1.00;;;;;;4956291;29;20038;-78
2021/05/27 02:21:30;;;;;;;2.75;1.10;;;9.80;1.00;;;;;;4958598;28;20027;-78
2021/05/27 02:23:57;;;;;;;1.23;0.90;;;9.80;1.00;;;;;;4958764;29;20449;-77
2021/05/27 02:26:24;;;;;;;1.10;0.90;;;9.80;1.00;;;;;;4960312;29;20396;-77
2021/05/27 02:28:50;;;;;;;1.05;0.95;;;9.80;1.00;;;;;;4960715;29;20033;-77
2021/05/27 02:31:16;;;;;;;2.05;1.00;;;9.70;1.00;;;;;;4958528;28;20400;-77
2021/05/27 02:33:42;;;;;;;1.60;1.40;;;9.70;1.00;;;;;;4962804;29;20027;-78
2021/05/27 02:36:08;;;;;;;2.13;0.90;;;9.70;1.00;;;;;;4959265;29;20467;-78
2021/05/27 02:38:35;;;;;;;1.15;0.88;;;9.70;1.00;;;;;;4959742;29;20019;-77
2021/05/27 02:41:00;;;;;;;1.67;1.08;;;9.70;1.00;;;;;;4959175;28;20031;-78
2021/05/27 02:43:26;;;;;;;1.90;1.33;;;9.70;1.00;;;;;;4960267;29;20038;-77
2021/05/27 02:45:52;;;;;;;0.98;0.90;;;9.70;1.00;;;;;;4965657;29;20503;-76
2021/05/27 02:48:17;;;;;;;0.85;0.70;;;9.70;1.00;;;;;;4972669;29;20027;-77
2021/05/27 02:50:43;;;;;;;1.67;1.00;;;9.70;1.00;;;;;;4971504;28;20015;-76
2021/05/27 02:53:08;;;;;;;1.20;1.10;;;9.70;1.00;;;;;;4971096;29;20027;-76
2021/05/27 02:55:34;;;;;;;1.55;0.90;;;9.60;1.00;;;;;;4972473;29;20047;-78
2021/05/27 02:58:00;;;;;;;0.90;0.90;;;9.60;1.00;;;;;;4971588;29;20039;-77
2021/05/27 03:00:25;;;;;;;1.17;1.10;;;9.70;1.00;;;;;;4969757;28;20051;-77
2021/05/27 03:02:51;;;;;;;2.10;0.80;;;9.60;1.00;;;;;;4961433;29;20031;-76
2021/05/27 03:05:16;;;;;;;1.27;1.13;;;9.70;1.00;;;;;;4959986;29;20079;-78
2021/05/27 03:07:42;;;;;;;1.13;1.02;;;9.60;1.00;;;;;;4972427;28;20022;-78
2021/05/27 03:10:08;;;;;;;1.45;1.10;;;9.60;1.00;;;;;;4960961;28;20332;-77
2021/05/27 03:12:33;;;;;;;1.92;1.10;;;9.50;1.00;;;;;;4958994;28;20111;-78
2021/05/27 03:14:59;;;;;;;1.88;0.98;;;9.50;1.00;;;;;;4957518;29;20055;-78
2021/05/27 03:17:25;;;;;;;1.50;1.00;;;9.50;1.00;;;;;;4959166;29;20031;-78
2021/05/27 03:19:51;;;;;;;1.08;1.08;;;9.40;1.00;;;;;;4956987;28;20074;-77
2021/05/27 03:22:16;;;;;;;2.25;1.08;;;9.40;1.00;;;;;;4958778;29;20035;-77
2021/05/27 03:24:42;;;;;;;1.83;1.50;;;9.30;1.00;;;;;;4966867;29;20037;-77
2021/05/27 03:27:09;;;;;;;0.93;0.90;;;9.30;1.00;;;;;;4972120;29;20041;-77
2021/05/27 03:29:35;;;;;;;1.48;1.30;;;9.20;1.00;;;;;;4972431;28;20031;-76
2021/05/27 03:32:01;;;;;;;1.17;0.90;;;9.20;1.00;;;;;;4971601;29;20031;-78
2021/05/27 03:34:26;;;;;;;3.17;1.40;;;9.20;1.00;;;;;;4971745;28;20035;-77
2021/05/27 03:36:52;;;;;;;2.22;1.10;;;9.20;1.00;;;;;;4961773;29;20174;-78
2021/05/27 03:39:17;;;;;;;2.80;1.88;;;9.20;1.00;;;;;;4957291;28;20038;-77
2021/05/27 03:41:43;;;;;;;1.77;1.20;;;9.20;1.00;;;;;;4961482;28;20031;-79
2021/05/27 03:44:08;;;;;;;1.90;1.25;;;9.20;1.00;;;;;;4958853;29;20034;-78
2021/05/27 03:46:35;;;;;;;2.65;1.77;;;9.30;1.00;;;;;;4958744;29;20031;-78
2021/05/27 03:49:00;;;;;;;5.10;1.30;;;9.40;1.00;;;;;;4958321;29;20043;-78
2021/05/27 03:51:26;;;;;;;1.60;1.08;;;9.50;1.00;;;;;;4957713;28;20388;-77
2021/05/27 03:53:51;;;;;;;2.10;1.30;;;9.60;1.00;;;;;;4958867;29;20023;-79
2021/05/27 03:56:17;;;;;;;1.08;0.93;;;9.80;1.00;;;;;;4957007;29;20586;-77
2021/05/27 04:01:27;;;;;;;2.22;1.65;;;10.00;1.00;;;;;;4958086;28;20407;-78
2021/05/27 04:09:21;;;;;;;1.45;1.05;;;10.40;1.00;;;;;;4966726;28;20090;-77
2021/05/27 04:11:46;;;;;;;1.63;1.48;;;10.40;1.00;;;;;;4958012;29;20027;-77
2021/05/27 04:14:12;;;;;;;1.30;0.95;;;10.50;1.00;;;;;;4957726;29;20054;-77
2021/05/27 04:16:37;;;;;;;2.33;1.35;;;10.80;1.00;;;;;;4958709;29;20460;-78
2021/05/27 04:19:03;;;;;;;1.33;1.10;;;11.10;1.00;;;;;;4957926;29;20031;-78
2021/05/27 04:21:29;;;;;;;1.25;1.15;;;11.40;1.00;;;;;;4957532;28;20027;-77
2021/05/27 04:23:54;;;;;;;1.33;0.85;;;11.60;1.00;;;;;;4957753;29;20027;-77
2021/05/27 04:26:20;;;;;;;0.82;0.70;;;11.90;1.00;;;;;;4956617;29;20480;-77
2021/05/27 04:28:47;;;;;;;2.22;1.20;;;12.20;99.90;;;;;;4955493;29;20499;-78
2021/05/27 04:31:16;;;;;;;1.27;1.17;;;12.50;99.90;;;;;;4954863;28;20418;-76
2021/05/27 04:33:46;;;;;;;1.48;1.10;;;12.80;99.90;;;;;;4955699;29;20476;-76
2021/05/27 04:36:14;;;;;;;1.10;0.85;;;13.10;99.90;;;;;;4956154;29;20023;-78
2021/05/27 04:38:41;;;;;;;1.10;1.00;;;13.00;99.90;;;;;;4956288;29;20039;-78
2021/05/27 04:41:08;;;;;;;0.98;0.80;;;12.80;99.90;;;;;;4956723;28;20031;-78
2021/05/27 04:43:38;;;;;;;4.80;1.02;;;12.90;99.90;;;;;;4954213;28;20447;-77
2021/05/27 04:46:04;;;;;;;1.58;1.13;;;13.10;99.90;;;;;;4963035;28;20239;-78
2021/05/27 04:48:30;;;;;;;3.28;1.10;;;13.40;99.90;;;;;;4971463;28;20031;-80
2021/05/27 04:50:56;;;;;;;1.75;0.70;;;13.60;99.90;;;;;;4959110;28;20027;-78
2021/05/27 04:53:23;;;;;;;1.45;0.80;;;13.80;99.90;;;;;;4974862;28;20033;-81
2021/05/27 04:55:49;;;;;;;2.45;0.90;;;14.10;99.90;;;;;;4975673;28;20049;-81
2021/05/27 04:58:15;;;;;;;0.70;0.65;;;14.30;99.90;;;;;;4963324;29;20475;-81
2021/05/27 05:00:41;;;;;;;0.60;0.60;;;14.50;99.90;;;;;;4962793;28;20031;-80
2021/05/27 05:03:07;;;;;;;1.73;0.80;;;14.80;99.90;;;;;;4961410;29;20031;-81
2021/05/27 05:05:35;;;;;;;1.48;1.05;;;14.90;99.90;;;;;;4961174;29;20062;-82
2021/05/27 05:08:01;;;;;;;2.35;0.95;;;14.90;99.90;;;;;;4963122;29;20043;-80
2021/05/27 05:10:28;;;;;;;0.98;0.70;;;15.10;93.10;;;;;;4963909;28;20031;-81
2021/05/27 05:12:54;;;;;;;1.85;0.60;;;15.20;77.30;;;;;;4979896;28;20078;-80
2021/05/27 05:15:39;;;;;;;1.02;0.40;;;15.00;69.90;;;;;;4982357;28;20034;-81
2021/05/27 05:18:07;;;;;;;3.05;0.60;;;15.30;64.10;;;;;;4981906;28;20023;-79
2021/05/27 05:20:41;;;;;;;1.65;0.55;;;15.70;1.00;;;;;;4980719;28;20022;-80
2021/05/27 05:23:08;;;;;;;1.25;0.82;;;15.60;1.00;;;;;;4982116;28;20023;-82
2021/05/27 05:25:36;;;;;;;1.40;0.60;;;15.60;1.00;;;;;;4980686;28;20077;-80
2021/05/27 05:28:03;;;;;;;8.98;1.88;;;15.90;1.00;;;;;;4982348;28;20030;-80
2021/05/27 05:30:29;;;;;;;0.90;0.70;;;16.10;1.00;;;;;;4978753;28;20031;-80
2021/05/27 05:32:56;;;;;;;1.23;0.60;;;16.40;99.90;;;;;;4980488;28;20026;-81
2021/05/27 05:35:22;;;;;;;1.02;0.70;;;16.50;99.90;;;;;;4979448;28;20033;-81
2021/05/27 05:37:48;;;;;;;1.65;0.80;;;16.80;99.90;;;;;;4979742;28;20026;-81
2021/05/27 05:40:17;;;;;;;1.10;0.60;;;17.40;99.90;;;;;;4979874;28;20447;-81
2021/05/27 05:42:44;;;;;;;1.95;0.70;;;17.10;1.00;;;;;;4979501;28;20514;-80
2021/05/27 05:45:13;;;;;;;1.63;0.82;;;16.70;99.90;;;;;;4979458;28;20458;-79
2021/05/27 05:47:39;;;;;;;1.27;0.70;;;16.90;99.90;;;;;;4975647;28;20098;-80
2021/05/27 05:50:07;;;;;;;0.88;0.57;;;16.70;99.90;;;;;;4979306;28;20104;-80
2021/05/27 05:52:33;;;;;;;0.65;0.60;;;16.30;99.90;;;;;;4978339;28;20047;-79
2021/05/27 05:54:59;;;;;;;0.63;0.52;;;16.70;99.90;;;;;;4979117;28;20069;-80
2021/05/27 05:57:25;;;;;;;0.98;0.85;;;16.00;99.90;;;;;;4981067;28;20027;-80
2021/05/27 05:59:50;;;;;;;1.33;0.55;;;15.80;99.90;;;;;;4982025;28;20056;-80
2021/05/27 06:02:16;;;;;;;1.77;0.70;;;15.80;1.00;;;;;;4982645;28;20030;-80
2021/05/27 06:04:42;;;;;;;0.95;0.50;;;16.20;1.00;;;;;;4981972;28;20042;-81
2021/05/27 06:07:08;;;;;;;1.02;0.75;;;17.20;99.90;;;;;;4980896;28;20054;-80
2021/05/27 06:09:33;;;;;;;2.33;1.00;;;17.00;99.90;;;;;;4982412;28;20030;-79
2021/05/27 06:11:59;;;;;;;0.80;0.60;;;17.00;99.90;;;;;;4983218;28;20026;-80
2021/05/27 06:14:25;;;;;;;2.28;0.73;;;16.80;99.90;;;;;;4982676;28;20018;-81
2021/05/27 06:16:50;;;;;;;0.80;0.68;;;17.00;99.90;;;;;;4982869;28;20030;-80
2021/05/27 06:19:17;;;;;;;2.35;0.57;;;16.80;99.90;;;;;;4982640;28;20071;-81
2021/05/27 06:21:42;;;;;;;1.23;0.63;;;16.10;99.90;;;;;;4982623;28;20046;-82
2021/05/27 06:24:08;;;;;;;1.75;0.60;;;15.70;99.90;;;;;;4982383;28;20033;-80
2021/05/27 06:26:38;;;;;;;1.92;0.52;;;14.80;99.90;;;;;;4981681;28;20038;-81
2021/05/27 06:29:04;;;;;;;1.40;0.75;;;14.30;1.00;;;;;;4980708;28;20034;-81
2021/05/27 06:31:30;;;;;;;1.20;0.80;;;14.20;99.90;;;;;;4982056;28;20034;-81
2021/05/27 06:33:56;;;;;;;2.35;0.75;;;14.20;1.00;;;;;;4982650;28;20023;-81
2021/05/27 06:36:22;;;;;;;1.83;0.68;;;13.80;99.90;;;;;;4982355;28;20027;-80
2021/05/27 06:38:47;;;;;;;2.97;0.88;;;13.80;1.00;;;;;;4982881;28;20102;-80
2021/05/27 06:41:18;;;;;;;1.08;0.75;;;13.80;99.90;;;;;;4983061;28;20302;-80
2021/05/27 06:43:44;;;;;;;;;;;14.10;99.90;;;;;;4983699;28;20023;-81
2021/05/27 06:46:09;;;;;;;0.73;0.65;;;14.20;1.00;;;;;;4983001;28;20015;-82
2021/05/27 06:48:35;;;;;;;0.77;0.70;;;14.00;99.90;;;;;;4982048;28;20503;-80
2021/05/27 06:51:01;;;;;;;1.08;0.93;;;14.00;99.90;;;;;;4981217;28;20031;-83
2021/05/27 06:53:26;;;;;;;1.60;0.80;;;14.20;99.90;;;;;;4981351;28;20022;-82
2021/05/27 06:55:52;;;;;;;2.15;0.95;;;14.20;1.00;;;;;;4981613;28;20065;-79
2021/05/27 06:58:18;;;;;;;1.67;0.88;;;14.50;97.70;;;;;;4982536;28;20030;-80
2021/05/27 07:00:44;;;;;;;1.48;0.77;;;14.70;99.90;;;;;;4982195;28;20395;-79
2021/05/27 07:03:11;;;;;;;1.13;0.73;;;15.00;99.90;;;;;;4981000;28;20498;-82
2021/05/27 07:05:38;;;;;;;0.88;0.50;;;14.30;48.40;;;;;;4979804;28;20023;-82
2021/05/27 07:08:06;;;;;;;1.88;0.95;;;14.20;99.90;;;;;;4978550;28;20475;-81
2021/05/27 07:10:32;;;;;;;1.42;1.33;;;14.00;99.90;;;;;;4981241;28;20046;-82
2021/05/27 07:13:08;;;;;;;1.42;0.80;;;14.00;99.90;;;;;;4984120;28;20030;-80
2021/05/27 07:15:40;;;;;;;2.78;0.88;;;14.10;99.90;;;;;;4993529;28;20023;-79
2021/05/27 07:18:06;;;;;;;4.07;0.90;;;14.40;99.90;;;;;;4982297;28;20031;-80
2021/05/27 07:20:32;;;;;;;3.45;1.10;;;14.60;1.00;;;;;;4979353;28;20062;-80
2021/05/27 07:22:57;;;;;;;1.73;0.80;;;14.90;80.10;;;;;;4980591;28;20023;-80
2021/05/27 07:25:24;;;;;;;1.95;0.63;;;15.20;82.90;;;;;;4981455;28;20027;-79
2021/05/27 07:27:51;;;;;;;0.68;0.68;;;15.00;1.00;;;;;;4980757;28;20027;-81
2021/05/27 07:30:18;;;;;;;1.65;0.88;;;14.50;1.00;;;;;;4979951;28;20157;-81
2021/05/27 07:32:45;;;;;;;1.45;0.77;;;14.40;1.00;;;;;;4981458;28;20019;-81
2021/05/27 07:35:10;;;;;;;11.98;2.00;;;14.50;1.00;;;;;;4979695;28;20424;-81
2021/05/27 07:37:36;;;;;;;0.88;0.75;;;14.60;1.00;;;;;;4981825;28;20027;-80
2021/05/27 07:40:03;;;;;;;2.08;0.88;;;15.00;1.00;;;;;;4979698;28;20236;-81
2021/05/27 07:42:28;;;;;;;1.75;0.80;;;14.80;99.90;;;;;;4980889;28;20027;-82
2021/05/27 07:44:54;;;;;;;2.67;0.93;;;14.70;99.90;;;;;;4979818;28;20054;-81
2021/05/27 07:47:20;;;;;;;1.88;0.80;;;14.40;99.90;;;;;;4980092;28;20082;-80
2021/05/27 07:50:20;;;;;;;2.10;0.98;;;14.30;1.00;;;;;;4980804;28;20027;-80
2021/05/27 07:52:47;;;;;;;2.55;0.70;;;14.50;1.00;;;;;;4981533;28;20038;-81
2021/05/27 07:55:12;;;;;;;2.33;0.98;;;14.90;99.90;;;;;;4978569;28;20035;-81
2021/05/27 07:57:38;;;;;;;3.10;0.90;;;15.00;99.90;;;;;;4979621;28;20030;-80
2021/05/27 08:00:06;;;;;;;1.77;0.90;;;14.90;99.90;;;;;;4981199;28;20142;-81
2021/05/27 08:02:32;;;;;;;1.73;0.95;;;14.50;99.90;;;;;;4980562;28;20034;-81
2021/05/27 08:04:57;;;;;;;1.15;0.88;;;14.60;99.90;;;;;;4980932;28;20030;-81
2021/05/27 08:07:23;;;;;;;2.55;0.95;;;15.20;99.90;;;;;;4982118;28;20019;-81
2021/05/27 08:09:48;;;;;;;1.45;0.90;;;15.50;99.90;;;;;;4981912;28;20055;-80
2021/05/27 08:12:14;;;;;;;2.60;0.88;;;15.80;99.90;;;;;;4979211;28;20041;-82
2021/05/27 08:14:40;;;;;;;1.70;0.82;;;15.70;99.90;;;;;;4978021;28;20288;-80
2021/05/27 08:17:05;;;;;;;0.98;0.77;;;14.70;99.90;;;;;;4980702;28;20023;-81
2021/05/27 08:19:31;;;;;;;1.95;0.82;;;14.60;99.90;;;;;;4980562;28;20027;-81
2021/05/27 08:21:57;;;;;;;1.83;0.60;;;14.80;99.90;;;;;;4978922;28;20062;-80
2021/05/27 08:24:22;;;;;;;1.83;0.98;;;15.00;99.90;;;;;;4980299;28;20031;-79
2021/05/27 08:26:48;;;;;;;1.35;1.20;;;15.30;99.90;;;;;;4980241;28;20046;-80
2021/05/27 08:29:13;;;;;;;4.30;0.98;;;15.20;99.90;;;;;;4979656;28;20045;-82
2021/05/27 08:31:40;;;;;;;1.98;0.90;;;15.00;99.90;;;;;;4980825;28;20039;-81
2021/05/27 08:34:10;;;;;;;2.00;1.52;;;15.10;99.90;;;;;;4980866;28;20019;-81
2021/05/27 08:36:36;;;;;;;1.40;0.90;;;15.70;99.90;;;;;;4979431;28;20467;-82
2021/05/27 08:39:04;;;;;;;2.33;1.05;;;15.80;99.90;;;;;;4980370;28;20022;-81
2021/05/27 08:41:29;;;;;;;1.75;1.08;;;15.70;99.90;;;;;;4980694;28;20036;-82
2021/05/27 08:43:55;;;;;;;2.15;1.23;;;15.90;99.90;;;;;;4980330;28;20058;-79
2021/05/27 08:46:21;;;;;;;0.85;0.63;;;16.00;99.90;;;;;;4980442;28;20031;-82
2021/05/27 08:48:47;;;;;;;1.77;1.00;;;15.80;99.90;;;;;;4980518;28;20035;-81
2021/05/27 08:51:14;;;;;;;0.95;0.73;;;15.70;99.90;;;;;;4979408;28;20023;-80
2021/05/27 08:53:40;;;;;;;2.08;0.80;;;15.00;99.90;;;;;;4980358;28;20029;-82
2021/05/27 08:56:05;;;;;;;0.88;0.60;;;15.40;99.90;;;;;;4979679;28;20122;-80
2021/05/27 08:58:31;;;;;;;2.47;0.90;;;15.40;99.90;;;;;;4980453;28;20023;-81
2021/05/27 09:00:57;;;;;;;1.75;0.82;;;15.50;99.90;;;;;;4979818;28;20101;-82
2021/05/27 09:03:23;;;;;;;1.88;0.75;;;15.40;99.90;;;;;;4978912;28;20030;-80
2021/05/27 09:06:00;;;;;;;0.52;0.52;;;15.20;99.90;;;;;;4980056;28;20030;-81
2021/05/27 09:08:29;;;;;;;1.35;0.70;;;15.60;99.90;;;;;;4979757;28;20022;-80
2021/05/27 09:11:10;;;;;;;2.80;1.00;;;16.40;99.90;;;;;;4980171;28;20106;-81
2021/05/27 09:13:37;;;;;;;2.28;1.35;;;17.20;96.80;;;;;;4977309;28;20082;-81
2021/05/27 09:16:08;;;;;;;1.60;0.90;;;16.20;61.30;;;;;;4982284;28;20539;-80
2021/05/27 09:18:42;;;;;;;1.25;0.80;;;16.10;82.00;;;;;;4978801;28;20038;-82
2021/05/27 09:21:10;;;;;;;1.35;0.63;;;16.20;88.70;;;;;;4978979;28;20495;-81
2021/05/27 09:23:45;;;;;;;2.13;0.75;;;15.90;69.20;;;;;;4980337;28;20102;-81
2021/05/27 09:26:13;;;;;;;3.58;0.50;;;16.40;77.10;;;;;;4980007;28;20041;-80
2021/05/27 09:28:39;;;;;;;1.80;0.68;;;16.60;48.00;;;;;;4980548;28;20054;-81
2021/05/27 09:31:11;;;;;;;1.88;0.82;;;16.10;52.20;;;;;;4980441;28;20030;-81
2021/05/27 09:33:43;;;;;;;1.58;0.70;;;16.30;64.40;;;;;;4980067;28;20027;-79
2021/05/27 09:36:14;;;;;;;2.05;0.70;;;16.20;66.20;;;;;;4979236;28;20026;-79
2021/05/27 09:38:42;;;;;;;2.78;0.93;;;15.80;73.40;;;;;;4980714;28;20042;-82
2021/05/27 09:41:22;;;;;;;1.63;0.70;;;15.60;83.90;;;;;;4978785;28;20421;-81
2021/05/27 09:43:53;;;;;;;4.10;0.80;;;15.30;98.10;;;;;;4978559;28;20065;-82
2021/05/27 09:46:20;;;;;;;1.20;0.73;;;15.30;99.90;;;;;;4980283;28;20023;-81
2021/05/27 09:48:46;;;;;;;1.83;0.80;;;15.40;98.80;;;;;;4989615;28;20078;-79
2021/05/27 09:51:28;;;;;;;3.80;0.60;;;15.60;99.90;;;;;;4997458;28;20042;-79
2021/05/27 09:53:55;;;;;;;1.10;0.65;;;16.20;92.20;;;;;;4997551;28;20015;-78
2021/05/27 09:56:42;;;;;;;1.33;0.80;;;16.50;81.90;;;;;;4997563;28;20015;-79
2021/05/27 10:02:13;;;;;;;1.33;0.90;;;17.10;56.70;;;;;;5174482;23;20031;-79
2021/05/27 10:04:57;;;;;;;2.47;0.60;;;16.80;39.60;;;;;;5016122;28;20034;-78
2021/05/27 10:07:49;;;;;;;1.73;0.50;;;16.70;42.20;;;;;;5014611;28;20031;-81
2021/05/27 10:10:26;;;;;;;;;;;16.80;40.90;;;;;;5002744;28;20042;-81
2021/05/27 10:12:54;;;;;;;0.68;0.55;;;16.40;36.20;;;;;;4999252;28;19906;-81
2021/05/27 10:15:24;;;;;;;1.00;0.55;;;16.50;49.80;;;;;;4998041;28;20063;-80
2021/05/27 10:17:53;;;;;;;0.77;0.60;;;16.10;43.10;;;;;;4998852;28;20027;-79
2021/05/27 10:20:21;;;;;;;1.00;0.80;;;15.80;51.00;;;;;;4999894;28;20269;-81
2021/05/27 10:22:48;;;;;;;3.03;0.90;;;15.80;67.50;;;;;;5000241;28;20023;-82
2021/05/27 10:25:16;;;;;;;2.10;0.57;;;15.60;63.70;;;;;;5000455;28;20058;-80
2021/05/27 10:28:12;;;;;;;1.73;0.80;;;15.40;73.70;;;;;;4999400;28;20027;-81
2021/05/27 10:30:41;;;;;;;2.15;0.88;;;15.10;91.40;;;;;;4997937;28;20034;-81
2021/05/27 10:33:14;;;;;;;1.40;0.80;;;15.10;99.90;;;;;;4998386;28;20025;-79
2021/05/27 10:35:54;;;;;;;2.80;1.17;;;15.40;99.90;;;;;;4997062;28;20106;-80
2021/05/27 10:38:41;;;;;;;1.63;0.80;;;15.50;99.90;;;;;;4998604;28;20387;-81
2021/05/27 10:41:13;;;;;;;1.73;0.90;;;15.50;99.90;;;;;;4996130;28;20104;-81
2021/05/27 10:46:28;;;;;;;2.05;0.90;;;15.30;99.90;;;;;;5000587;28;20494;-80
2021/05/27 10:48:54;;;;;;;2.30;0.98;;;15.10;99.90;;;;;;5001227;28;20026;-81
2021/05/27 10:54:14;;;;;;;2.08;1.10;;;15.70;99.90;;;;;;5003021;28;20517;-81
2021/05/27 10:57:06;;;;;;;2.58;0.80;;;16.20;99.90;;;;;;5002665;28;20087;-80
2021/05/27 10:59:34;;;;;;;1.77;1.10;;;16.30;99.90;;;;;;4999709;28;20105;-81
2021/05/27 11:02:08;;;;;;;2.50;1.83;;;16.20;99.90;;;;;;5015971;28;20100;-80
2021/05/27 11:04:37;;;;;;;1.80;0.80;;;16.30;99.90;;;;;;5002345;28;20110;-82
2021/05/27 11:07:23;;;;;;;0.90;0.80;;;16.40;99.90;;;;;;5001563;28;20018;-80
2021/05/27 11:10:28;;;;;;;1.13;0.85;;;16.50;99.90;;;;;;5004636;28;20086;-80
2021/05/27 11:13:05;;;;;;;1.95;1.10;;;16.10;99.90;;;;;;5018129;28;20471;-80
2021/05/27 11:15:34;;;;;;;1.98;1.02;;;16.30;99.90;;;;;;5001517;28;20030;-82
2021/05/27 11:18:10;;;;;;;0.98;0.80;;;16.40;99.90;;;;;;5001919;28;20079;-81
2021/05/27 11:20:39;;;;;;;2.00;0.93;;;16.70;99.90;;;;;;4999053;28;20022;-81
2021/05/27 11:23:20;;;;;;;3.78;0.85;;;16.80;93.00;;;;;;5002560;28;20034;-80
2021/05/27 11:25:50;;;;;;;2.17;0.70;;;16.90;91.40;;;;;;5010589;28;20045;-82
2021/05/27 11:28:45;;;;;;;1.63;0.80;;;16.70;94.50;;;;;;4997853;28;20110;-80
2021/05/27 11:31:46;;;;;;;1.88;0.70;;;17.40;88.00;;;;;;5057474;23;20046;-81
2021/05/27 11:34:14;;;;;;;1.88;0.68;;;17.90;48.70;;;;;;5000714;28;20023;-80
2021/05/27 11:36:40;;;;;;;2.38;0.88;;;17.40;38.50;;;;;;5001701;28;20061;-79
2021/05/27 11:39:22;;;;;;;0.88;0.50;;;17.80;35.60;;;;;;4999663;28;20022;-82
2021/05/27 11:41:50;;;;;;;1.15;0.70;;;18.00;13.00;;;;;;4980841;28;20443;-81
2021/05/27 11:44:16;;;;;;;1.10;0.43;;;17.90;8.20;;;;;;4982493;28;20018;-80
2021/05/27 11:46:41;;;;;;;1.77;0.70;;;17.80;5.30;;;;;;4979826;28;20377;-81
2021/05/27 11:49:07;;;;;;;1.27;0.80;;;17.20;8.70;;;;;;4981864;28;20062;-80
2021/05/27 11:51:36;;;;;;;2.10;0.95;;;17.10;25.10;;;;;;4981455;28;20038;-80
2021/05/27 11:54:07;;;;;;;3.17;0.80;;;16.70;26.90;;;;;;4980403;28;20390;-81
2021/05/27 11:56:42;;;;;;;1.13;0.70;;;16.50;33.00;;;;;;4982184;28;20025;-81
2021/05/27 11:59:12;;;;;;;2.67;0.70;;;16.60;24.80;;;;;;4981235;28;20383;-81
2021/05/27 12:01:40;;;;;;;3.00;0.70;;;16.70;28.20;;;;;;4980351;28;20027;-81
2021/05/27 12:04:13;;;;;;;1.38;0.60;;;16.80;30.70;;;;;;4982170;28;20398;-81
2021/05/27 12:07:01;;;;;;;1.30;1.00;;;17.10;29.80;;;;;;4981344;28;20030;-82
2021/05/27 12:09:28;;;;;;;2.67;0.75;;;17.20;26.60;;;;;;4980680;28;20046;-80
2021/05/27 12:12:26;;;;;;;1.30;0.70;;;17.10;21.30;;;;;;4981316;28;20037;-81
2021/05/27 12:14:57;;;;;;;2.80;1.00;;;17.50;20.10;;;;;;4982173;28;20106;-81
2021/05/27 12:17:25;;;;;;;2.67;0.75;;;18.50;15.70;;;;;;4996408;28;20037;-79
2021/05/27 12:19:53;;;;;;;1.50;0.80;;;19.20;7.50;;;;;;4981037;28;20108;-80
2021/05/27 12:22:20;;;;;;;2.03;0.60;;;19.70;1.00;;;;;;4981029;28;20023;-80
2021/05/27 12:24:47;;;;;;;2.00;0.85;;;19.40;1.00;;;;;;4995623;28;20042;-80
2021/05/27 12:27:13;;;;;;;1.42;0.85;;;19.20;1.00;;;;;;4980634;28;20031;-81
2021/05/27 12:33:41;;;;;;;1.95;0.70;;;18.50;1.00;;;;;;4979583;28;20111;-82
2021/05/27 12:36:10;;;;;;;1.23;0.50;;;18.60;1.00;;;;;;4960496;28;20031;-79
2021/05/27 12:38:59;;;;;;;1.35;0.82;;;18.00;1.00;;;;;;4973489;28;20039;-80
2021/05/27 12:55:11;;;;;;;1.02;0.60;;;17.90;1.30;;;;;;4900536;29;20412;-79
2021/05/27 12:57:51;;;;;;;1.48;0.85;;;17.70;2.10;;;;;;4899897;29;20111;-81
2021/05/27 13:00:17;;;;;;;0.88;0.88;;;17.70;3.00;;;;;;4899520;29;20115;-83
2021/05/27 13:03:05;;;;;;;3.45;0.98;;;17.80;1.20;;;;;;4956138;28;20468;-81
2021/05/27 13:06:00;;;;;;;3.92;1.33;;;17.70;1.00;;;;;;4977908;28;20038;-80
2021/05/27 13:08:30;;;;;;;2.38;1.10;;;17.50;1.00;;;;;;4978307;28;20110;-82
2021/05/27 13:10:56;;;;;;;1.02;0.68;;;17.40;1.00;;;;;;4993710;28;20122;-81
2021/05/27 13:13:32;;;;;;;1.05;0.70;;;17.70;3.80;;;;;;4978105;28;20063;-80
2021/05/27 13:16:04;;;;;;;1.75;0.70;;;17.80;1.00;;;;;;4982806;28;20043;-80
2021/05/27 13:18:29;;;;;;;2.33;1.23;;;17.70;1.50;;;;;;4979421;28;20492;-81
2021/05/27 13:21:13;;;;;;;1.20;0.70;;;17.60;9.40;;;;;;4995323;28;20033;-81
2021/05/27 13:23:52;;;;;;;4.30;1.83;;;17.60;1.00;;;;;;4979659;28;20026;-82
2021/05/27 13:26:22;;;;;;;3.63;3.08;;;17.50;1.00;;;;;;4979794;28;20448;-81
2021/05/27 13:29:00;;;;;;;1.67;1.25;;;17.80;1.00;;;;;;4978643;28;20043;-83
2021/05/27 13:31:37;;;;;;;4.82;0.93;;;18.10;1.00;;;;;;4980975;28;20030;-82
2021/05/27 13:34:04;;;;;;;2.90;1.40;;;18.10;1.00;;;;;;4992079;28;20307;-79
2021/05/27 13:36:29;;;;;;;3.00;1.92;;;18.40;1.00;;;;;;4997754;28;20042;-78
2021/05/27 13:38:57;;;;;;;5.07;2.40;;;17.90;1.00;;;;;;4997738;28;20031;-78
2021/05/27 13:41:23;;;;;;;3.95;1.45;;;17.50;1.00;;;;;;4996382;28;20015;-79